createdAt,value
2023-02-03T00:00:57.500Z,2.26
2023-02-03T00:03:20.142Z,2.21
2023-02-03T00:05:42.935Z,2.16
2023-02-03T00:08:07.514Z,2.19
2023-02-03T00:10:30.131Z,2.20
2023-02-03T00:12:57.686Z,2.16
2023-02-03T00:15:20.571Z,2.10
2023-02-03T00:17:43.215Z,2.12
2023-02-03T00:20:06.533Z,2.09
2023-02-03T00:22:29.583Z,2.02
2023-02-03T00:24:52.231Z,2.00
2023-02-03T00:27:14.896Z,1.98
2023-02-03T00:32:14.146Z,2.03
2023-02-03T00:34:36.698Z,2.03
2023-02-03T00:36:59.852Z,2.10
2023-02-03T00:39:22.688Z,2.09
2023-02-03T00:41:45.343Z,2.02
2023-02-03T00:44:08.032Z,2.02
2023-02-03T00:46:30.749Z,2.00
2023-02-03T00:48:53.305Z,1.92
2023-02-03T00:51:15.971Z,1.96
2023-02-03T00:53:38.537Z,1.95
2023-02-03T00:56:01.174Z,1.95
2023-02-03T00:58:23.790Z,1.93
2023-02-03T01:00:46.505Z,1.96
2023-02-03T01:03:10.454Z,1.91
2023-02-03T01:05:33.411Z,1.91
2023-02-03T01:07:55.940Z,1.95
2023-02-03T01:10:18.784Z,1.89
2023-02-03T01:12:41.399Z,1.85
2023-02-03T01:15:04.288Z,1.85
2023-02-03T01:17:26.976Z,1.87
2023-02-03T01:19:51.596Z,1.87
2023-02-03T01:22:14.408Z,1.86
2023-02-03T01:24:37.042Z,1.78
2023-02-03T01:27:00.971Z,1.83
2023-02-03T01:29:24.860Z,1.78
2023-02-03T01:31:47.477Z,1.75
2023-02-03T01:34:16.623Z,1.69
2023-02-03T01:36:39.522Z,1.64
2023-02-03T01:39:03.210Z,1.55
2023-02-03T01:41:31.933Z,1.54
2023-02-03T01:43:56.870Z,1.50
2023-02-03T01:46:33.854Z,1.40
2023-02-03T01:49:04.087Z,1.37
2023-02-03T01:51:26.821Z,1.33
2023-02-03T01:53:53.275Z,1.35
2023-02-03T01:56:16.659Z,1.30
2023-02-03T01:58:42.237Z,1.26
2023-02-03T02:01:05.193Z,1.33
2023-02-03T02:03:33.839Z,1.30
2023-02-03T02:06:10.171Z,1.30
2023-02-03T02:08:37.172Z,1.23
2023-02-03T02:11:00.737Z,1.26
2023-02-03T02:13:24.648Z,1.16
2023-02-03T02:15:57.617Z,1.14
2023-02-03T02:18:29.355Z,1.12
2023-02-03T02:20:59.410Z,1.16
2023-02-03T02:23:52.753Z,1.16
2023-02-03T02:26:37.389Z,1.14
2023-02-03T02:29:18.762Z,1.16
2023-02-03T02:31:59.798Z,1.19
2023-02-03T02:34:22.500Z,1.23
2023-02-03T02:37:14.948Z,1.23
2023-02-03T02:39:59.591Z,1.34
2023-02-03T02:42:43.756Z,1.34
2023-02-03T02:45:17.694Z,1.37
2023-02-03T02:47:41.571Z,1.37
2023-02-03T02:50:14.835Z,1.41
2023-02-03T02:52:42.149Z,1.44
2023-02-03T02:55:16.525Z,1.40
2023-02-03T02:57:39.949Z,1.33
2023-02-03T03:00:04.286Z,1.28
2023-02-03T03:02:36.534Z,1.27
2023-02-03T03:04:59.375Z,1.27
2023-02-03T03:07:26.772Z,1.20
2023-02-03T03:10:04.065Z,1.24
2023-02-03T03:12:30.934Z,1.23
2023-02-03T03:15:03.410Z,1.24
2023-02-03T03:17:34.780Z,1.30
2023-02-03T03:20:02.822Z,1.26
2023-02-03T03:22:30.470Z,1.26
2023-02-03T03:25:00.447Z,1.23
2023-02-03T03:27:32.451Z,1.16
2023-02-03T03:30:03.055Z,1.19
2023-02-03T03:32:28.241Z,1.14
2023-02-03T03:34:52.263Z,1.16
2023-02-03T03:37:33.403Z,1.16
2023-02-03T03:39:58.664Z,1.10
2023-02-03T03:42:42.053Z,1.03
2023-02-03T03:45:11.396Z,1.04
2023-02-03T03:47:44.610Z,1.07
2023-02-03T03:50:12.317Z,1.08
2023-02-03T03:52:36.766Z,1.01
2023-02-03T03:55:01.602Z,1.00
2023-02-03T03:57:52.115Z,1.06
2023-02-03T04:00:19.209Z,1.03
2023-02-03T04:02:46.488Z,0.96
2023-02-03T04:05:11.036Z,1.03
2023-02-03T04:07:41.991Z,1.08
2023-02-03T04:10:12.745Z,1.03
2023-02-03T04:12:35.380Z,1.08
2023-02-03T04:14:58.022Z,1.01
2023-02-03T04:17:20.705Z,0.97
2023-02-03T04:19:43.333Z,1.07
2023-02-03T04:22:05.799Z,1.00
2023-02-03T04:24:28.338Z,0.95
2023-02-03T04:26:51.011Z,0.90
2023-02-03T04:29:13.663Z,0.89
2023-02-03T04:31:36.625Z,0.86
2023-02-03T04:33:59.334Z,0.93
2023-02-03T04:36:21.946Z,0.89
2023-02-03T04:38:44.615Z,0.86
2023-02-03T04:41:07.128Z,0.86
2023-02-03T04:43:29.671Z,0.93
2023-02-03T04:45:52.216Z,0.97
2023-02-03T04:48:14.875Z,1.10
2023-02-03T04:50:37.466Z,1.10
2023-02-03T04:53:00.622Z,1.23
2023-02-03T04:55:23.138Z,1.27
2023-02-03T04:57:45.910Z,1.28
2023-02-03T05:00:15.478Z,1.40
2023-02-03T05:02:38.098Z,1.40
2023-02-03T05:05:00.612Z,1.47
2023-02-03T05:07:23.305Z,1.48
2023-02-03T05:09:45.915Z,1.52
2023-02-03T05:12:08.350Z,1.55
2023-02-03T05:14:30.768Z,1.64
2023-02-03T05:16:53.419Z,1.56
2023-02-03T05:19:15.997Z,1.58
2023-02-03T05:21:38.628Z,1.59
2023-02-03T05:24:03.260Z,1.61
2023-02-03T05:26:26.278Z,1.69
2023-02-03T05:28:49.797Z,1.78
2023-02-03T05:31:13.361Z,1.83
2023-02-03T05:33:36.016Z,1.83
2023-02-03T05:35:58.724Z,1.81
2023-02-03T05:38:21.727Z,1.72
2023-02-03T05:41:03.137Z,1.73
2023-02-03T05:43:25.872Z,1.71
2023-02-03T05:45:48.371Z,1.83
2023-02-03T05:48:11.698Z,1.86
2023-02-03T05:50:36.848Z,1.95
2023-02-03T05:53:05.472Z,1.85
2023-02-03T05:55:29.467Z,1.87
2023-02-03T05:57:52.098Z,1.96
2023-02-03T06:00:15.219Z,2.09
2023-02-03T06:02:37.931Z,2.05
2023-02-03T06:05:00.443Z,2.12
2023-02-03T06:07:23.010Z,2.13
2023-02-03T06:09:45.720Z,2.20
2023-02-03T06:12:08.429Z,2.21
2023-02-03T06:14:31.016Z,2.33
2023-02-03T06:16:54.022Z,2.44
2023-02-03T06:19:16.638Z,2.54
2023-02-03T06:21:39.213Z,2.52
2023-02-03T06:24:01.760Z,2.62
2023-02-03T06:26:25.522Z,2.54
2023-02-03T06:28:48.171Z,2.40
2023-02-03T06:31:11.370Z,2.31
2023-02-03T06:33:34.008Z,2.40
2023-02-03T06:35:56.571Z,2.37
2023-02-03T06:38:19.222Z,2.38
2023-02-03T06:40:42.150Z,2.51
2023-02-03T06:43:05.048Z,2.54
2023-02-03T06:45:27.696Z,2.40
2023-02-03T06:47:50.394Z,2.48
2023-02-03T06:50:15.163Z,2.50
2023-02-03T06:52:38.024Z,2.50
2023-02-03T06:55:00.617Z,2.51
2023-02-03T06:57:23.345Z,2.54
2023-02-03T06:59:46.213Z,2.54
2023-02-03T07:02:11.547Z,2.57
2023-02-03T07:04:34.066Z,2.58
2023-02-03T07:06:57.749Z,2.57
2023-02-03T07:09:20.585Z,2.58
2023-02-03T07:11:44.096Z,2.60
2023-02-03T07:14:08.338Z,2.52
2023-02-03T07:16:32.807Z,2.54
2023-02-03T07:18:55.569Z,2.61
2023-02-03T07:21:19.384Z,2.62
2023-02-03T07:23:42.136Z,2.55
2023-02-03T07:26:06.172Z,2.61
2023-02-03T07:28:29.023Z,2.60
2023-02-03T07:30:52.284Z,2.64
2023-02-03T07:33:15.583Z,2.65
2023-02-03T07:35:38.216Z,2.64
2023-02-03T07:38:01.048Z,2.68
2023-02-03T07:40:23.692Z,2.61
2023-02-03T07:42:48.132Z,2.66
2023-02-03T07:45:12.828Z,2.84
2023-02-03T07:47:35.506Z,2.86
2023-02-03T07:49:58.211Z,2.89
2023-02-03T07:52:22.139Z,2.86
2023-02-03T07:54:44.966Z,2.85
2023-02-03T07:57:07.902Z,3.03
2023-02-03T07:59:30.395Z,2.96
2023-02-03T08:01:56.421Z,2.92
2023-02-03T08:04:19.446Z,3.03
2023-02-03T08:06:43.865Z,3.33
2023-02-03T08:09:06.609Z,3.38
2023-02-03T08:11:29.157Z,3.47
2023-02-03T08:13:51.812Z,3.34
2023-02-03T08:16:14.371Z,3.34
2023-02-03T08:18:37.025Z,3.38
2023-02-03T08:21:00.749Z,3.40
2023-02-03T08:23:23.403Z,3.23
2023-02-03T08:25:50.765Z,3.22
2023-02-03T08:28:13.866Z,3.31
2023-02-03T08:30:36.809Z,3.37
2023-02-03T08:32:59.908Z,3.33
2023-02-03T08:35:22.871Z,3.22
2023-02-03T08:37:45.563Z,2.99
2023-02-03T08:40:09.203Z,3.05
2023-02-03T08:42:32.445Z,2.88
2023-02-03T08:44:55.269Z,2.95
2023-02-03T08:47:17.985Z,2.84
2023-02-03T08:49:41.217Z,2.78
2023-02-03T08:52:04.234Z,2.71
2023-02-03T08:54:30.569Z,2.62
2023-02-03T08:56:53.663Z,2.60
2023-02-03T08:59:16.743Z,2.62
2023-02-03T09:01:45.055Z,2.50
2023-02-03T09:04:09.241Z,2.50
2023-02-03T09:06:31.957Z,2.54
2023-02-03T09:08:54.785Z,2.61
2023-02-03T09:11:19.372Z,2.64
2023-02-03T09:13:46.137Z,2.60
2023-02-03T09:16:08.875Z,2.62
2023-02-03T09:18:31.784Z,2.64
2023-02-03T09:21:04.327Z,2.68
2023-02-03T09:23:27.691Z,2.86
2023-02-03T09:25:50.438Z,3.05
2023-02-03T09:28:13.326Z,2.95
2023-02-03T09:30:36.270Z,3.05
2023-02-03T09:32:59.271Z,3.00
2023-02-03T09:35:22.894Z,2.85
2023-02-03T09:37:45.770Z,2.84
2023-02-03T09:40:17.625Z,2.81
2023-02-03T09:42:59.939Z,2.89
2023-02-03T09:45:28.132Z,3.07
2023-02-03T09:47:55.338Z,3.31
2023-02-03T09:50:22.944Z,3.58
2023-02-03T09:52:46.545Z,3.74
2023-02-03T09:55:15.204Z,3.79
2023-02-03T09:57:57.201Z,3.74
2023-02-03T10:00:23.820Z,3.81
2023-02-03T10:02:57.142Z,3.99
2023-02-03T10:05:30.033Z,4.05
2023-02-03T10:08:01.915Z,3.98
2023-02-03T10:10:35.171Z,3.95
2023-02-03T10:13:11.972Z,3.74
2023-02-03T10:15:46.455Z,3.71
2023-02-03T10:18:24.298Z,3.89
2023-02-03T10:20:55.069Z,3.99
2023-02-03T10:23:22.226Z,3.89
2023-02-03T10:25:57.168Z,3.73
2023-02-03T10:28:23.182Z,3.70
2023-02-03T10:30:57.405Z,3.73
2023-02-03T10:33:20.301Z,3.51
2023-02-03T10:35:53.925Z,3.55
2023-02-03T10:38:42.503Z,3.54
2023-02-03T10:41:05.639Z,3.51
2023-02-03T10:43:47.533Z,3.54
2023-02-03T10:46:10.386Z,3.40
2023-02-03T10:48:33.361Z,3.40
2023-02-03T10:50:57.580Z,3.33
2023-02-03T10:53:26.446Z,3.33
2023-02-03T10:56:02.729Z,3.31
2023-02-03T10:58:30.646Z,3.23
2023-02-03T11:01:07.795Z,3.24
2023-02-03T11:03:30.879Z,3.17
2023-02-03T11:06:14.355Z,3.17
2023-02-03T11:08:41.257Z,3.13
2023-02-03T11:11:07.509Z,3.10
2023-02-03T11:13:30.257Z,3.26
2023-02-03T11:16:00.374Z,3.24
2023-02-03T11:18:44.148Z,3.06
2023-02-03T11:21:20.378Z,2.92
2023-02-03T11:24:01.487Z,2.89
2023-02-03T11:26:29.270Z,2.79
2023-02-03T11:28:54.599Z,2.79
2023-02-03T11:31:21.174Z,2.77
2023-02-03T11:33:48.127Z,2.81
2023-02-03T11:36:12.100Z,2.77
2023-02-03T11:38:42.378Z,2.66
2023-02-03T11:41:05.291Z,2.72
2023-02-03T11:43:32.077Z,2.78
2023-02-03T11:46:03.638Z,2.82
2023-02-03T11:48:35.604Z,2.74
2023-02-03T11:51:32.235Z,2.85
2023-02-03T11:54:24.088Z,3.03
2023-02-03T11:57:06.541Z,2.96
2023-02-03T11:59:47.248Z,2.89
2023-02-03T12:02:31.385Z,2.98
2023-02-03T12:05:20.509Z,2.98
2023-02-03T12:07:49.419Z,3.06
2023-02-03T12:10:41.250Z,3.19
2023-02-03T12:13:19.094Z,3.22
2023-02-03T12:16:04.808Z,3.07
2023-02-03T12:18:46.177Z,3.20
2023-02-03T12:21:35.542Z,3.22
2023-02-03T12:24:15.741Z,3.15
2023-02-03T12:27:06.257Z,3.26
2023-02-03T12:29:38.998Z,3.20
2023-02-03T12:32:25.822Z,3.15
2023-02-03T12:34:56.059Z,3.34
2023-02-03T12:37:29.453Z,3.27
2023-02-03T12:39:54.973Z,3.20
2023-02-03T12:42:38.019Z,3.33
2023-02-03T12:45:21.743Z,3.37
2023-02-03T12:48:27.930Z,3.37
2023-02-03T12:50:54.211Z,3.23
2023-02-03T12:53:21.628Z,3.23
2023-02-03T12:56:01.050Z,3.34
2023-02-03T12:58:28.658Z,3.38
2023-02-03T13:01:18.823Z,3.41
2023-02-03T13:03:49.270Z,3.43
2023-02-03T13:06:14.639Z,3.38
2023-02-03T13:08:47.836Z,3.37
2023-02-03T13:11:24.809Z,3.41
2023-02-03T13:13:53.804Z,3.46
2023-02-03T13:16:21.278Z,3.46
2023-02-03T13:18:48.095Z,3.50
2023-02-03T13:21:12.682Z,3.58
2023-02-03T13:23:35.918Z,3.71
2023-02-03T13:26:13.531Z,3.77
2023-02-03T13:28:57.880Z,3.89
2023-02-03T13:31:41.706Z,3.95
2023-02-03T13:34:07.235Z,3.99
2023-02-03T13:37:00.114Z,3.96
2023-02-03T13:39:29.376Z,3.89
2023-02-03T13:42:08.379Z,3.92
2023-02-03T13:44:31.434Z,3.98
2023-02-03T13:46:57.325Z,4.10
2023-02-03T13:49:30.147Z,4.02
2023-02-03T13:51:54.039Z,3.99
2023-02-03T13:54:48.702Z,4.10
2023-02-03T13:57:24.893Z,4.28
2023-02-03T13:59:48.515Z,4.33
2023-02-03T14:02:20.018Z,4.34
2023-02-03T14:04:45.599Z,4.44
2023-02-03T14:07:30.097Z,4.23
2023-02-03T14:10:15.215Z,4.28
2023-02-03T14:12:40.429Z,4.47
2023-02-03T14:15:23.204Z,4.34
2023-02-03T14:17:46.541Z,4.37
2023-02-03T14:20:27.616Z,4.44
2023-02-03T14:22:53.133Z,4.40
2023-02-03T14:25:19.673Z,4.44
2023-02-03T14:27:42.363Z,4.50
2023-02-03T14:30:09.488Z,4.62
2023-02-03T14:33:00.731Z,4.57
2023-02-03T14:35:34.993Z,4.68
2023-02-03T14:38:02.319Z,4.70
2023-02-03T14:40:30.940Z,4.54
2023-02-03T14:43:15.902Z,4.56
2023-02-03T14:45:41.553Z,4.51
2023-02-03T14:48:55.514Z,4.47
2023-02-03T14:51:48.013Z,4.41
2023-02-03T14:54:44.331Z,4.53
2023-02-03T14:57:44.438Z,4.61
2023-02-03T15:00:27.086Z,4.57
2023-02-03T15:03:10.073Z,4.75
2023-02-03T15:05:32.653Z,4.77
2023-02-03T15:07:55.389Z,4.84
2023-02-03T15:10:21.744Z,4.82
2023-02-03T15:12:52.435Z,4.91
2023-02-03T15:15:26.942Z,4.92
2023-02-03T15:17:52.235Z,4.93
2023-02-03T15:20:25.303Z,4.84
2023-02-03T15:22:48.121Z,4.87
2023-02-03T15:25:18.417Z,4.93
2023-02-03T15:27:41.194Z,4.68
2023-02-03T15:30:27.472Z,4.65
2023-02-03T15:33:08.445Z,4.74
2023-02-03T15:35:34.221Z,4.85
2023-02-03T15:38:03.544Z,4.75
2023-02-03T15:40:42.587Z,4.84
2023-02-03T15:43:12.393Z,4.75
2023-02-03T15:45:37.888Z,4.78
2023-02-03T15:48:14.363Z,4.68
2023-02-03T15:50:49.128Z,4.68
2023-02-03T15:53:20.579Z,4.85
2023-02-03T15:55:46.883Z,4.74
2023-02-03T15:58:26.088Z,4.92
2023-02-03T16:00:52.492Z,4.85
2023-02-03T16:03:22.697Z,4.78
2023-02-03T16:05:48.972Z,4.82
2023-02-03T16:08:37.735Z,4.84
2023-02-03T16:11:01.049Z,4.82
2023-02-03T16:13:26.819Z,4.79
2023-02-03T16:16:08.640Z,4.70
2023-02-03T16:18:36.005Z,4.64
2023-02-03T16:20:58.572Z,4.70
2023-02-03T16:23:28.493Z,4.61
2023-02-03T16:26:18.418Z,4.70
2023-02-03T16:28:59.866Z,4.74
2023-02-03T16:31:41.200Z,4.75
2023-02-03T16:34:36.419Z,4.68
2023-02-03T16:37:17.860Z,4.77
2023-02-03T16:39:58.852Z,4.74
2023-02-03T16:42:40.694Z,4.74
2023-02-03T16:45:23.939Z,4.67
2023-02-03T16:48:05.715Z,4.60
2023-02-03T16:50:47.042Z,4.64
2023-02-03T16:53:19.680Z,4.67
2023-02-03T16:55:43.686Z,4.62
2023-02-03T16:58:06.396Z,4.64
2023-02-03T17:00:29.159Z,4.65
2023-02-03T17:02:52.069Z,4.64
2023-02-03T17:05:14.864Z,4.64
2023-02-03T17:07:37.510Z,4.68
2023-02-03T17:10:00.389Z,4.68
2023-02-03T17:12:23.132Z,4.62
2023-02-03T17:14:45.693Z,4.62
2023-02-03T17:17:08.342Z,4.64
2023-02-03T17:19:31.365Z,4.74
2023-02-03T17:21:53.973Z,4.78
2023-02-03T17:24:16.655Z,4.74
2023-02-03T17:26:42.161Z,4.79
2023-02-03T17:29:04.853Z,4.82
2023-02-03T17:31:27.603Z,4.79
2023-02-03T17:33:52.092Z,4.72
2023-02-03T17:36:16.889Z,4.74
2023-02-03T17:54:48.913Z,4.88
2023-02-03T17:57:11.559Z,4.72
2023-02-03T18:02:14.411Z,4.70
2023-02-03T18:04:37.358Z,4.84
2023-02-03T18:07:00.303Z,4.75
2023-02-03T18:09:22.876Z,4.81
2023-02-03T18:11:46.365Z,4.88
2023-02-03T18:14:11.239Z,4.88
2023-02-03T18:16:36.163Z,4.95
2023-02-03T18:19:00.756Z,4.95
2023-02-03T18:21:25.630Z,5.04
2023-02-03T18:23:49.614Z,5.09
2023-02-03T18:26:13.460Z,5.11
2023-02-03T18:28:37.058Z,5.04
2023-02-03T18:31:00.939Z,5.08
2023-02-03T18:33:23.491Z,4.96
2023-02-03T18:35:46.451Z,5.04
2023-02-03T18:38:09.916Z,5.04
2023-02-03T18:40:32.826Z,5.11
2023-02-03T18:42:58.283Z,5.09
2023-02-03T18:45:21.205Z,5.06
2023-02-03T18:47:45.295Z,5.06
2023-02-03T18:50:09.017Z,5.04
2023-02-03T18:52:31.944Z,5.06
2023-02-03T18:54:55.207Z,5.13
2023-02-03T18:57:18.076Z,5.16
2023-02-03T18:59:41.346Z,5.23
2023-02-03T19:02:03.882Z,5.26
2023-02-03T19:04:26.749Z,5.23
2023-02-03T19:06:49.967Z,5.30
2023-02-03T19:09:16.136Z,5.29
2023-02-03T19:11:38.991Z,5.36
2023-02-03T19:14:02.282Z,5.47
2023-02-03T19:16:25.154Z,5.56
2023-02-03T19:18:48.178Z,5.60
2023-02-03T19:21:11.927Z,5.65
2023-02-03T19:23:34.882Z,5.68
2023-02-03T19:25:57.725Z,5.70
2023-02-03T19:28:30.423Z,5.73
2023-02-03T19:31:00.049Z,5.84
2023-02-03T19:33:28.545Z,5.92
2023-02-03T19:35:52.194Z,6.01
2023-02-03T19:38:15.488Z,6.15
2023-02-03T19:40:38.103Z,6.19
2023-02-03T19:43:04.040Z,6.13
2023-02-03T19:45:27.582Z,6.12
2023-02-03T19:47:50.801Z,6.04
2023-02-03T19:50:13.718Z,5.84
2023-02-03T19:52:36.557Z,5.84
2023-02-03T19:54:59.334Z,5.71
2023-02-03T19:57:22.359Z,5.64
2023-02-03T19:59:45.554Z,5.61
2023-02-03T20:02:14.486Z,5.60
2023-02-03T20:04:38.097Z,5.56
2023-02-03T20:07:01.019Z,5.51
2023-02-03T20:09:23.985Z,5.46
2023-02-03T20:11:46.887Z,5.33
2023-02-03T20:14:11.220Z,5.29
2023-02-03T20:16:34.589Z,5.29
2023-02-03T20:18:57.176Z,5.23
2023-02-03T20:21:19.779Z,5.20
2023-02-03T20:23:42.687Z,5.26
2023-02-03T20:26:06.253Z,5.26
2023-02-03T20:28:30.158Z,5.23
2023-02-03T20:30:59.181Z,5.19
2023-02-03T20:33:24.495Z,5.16
2023-02-03T20:35:49.025Z,5.13
2023-02-03T20:38:12.923Z,5.08
2023-02-03T20:40:36.000Z,5.11
2023-02-03T20:43:03.140Z,5.22
2023-02-03T20:45:26.327Z,5.33
2023-02-03T20:47:50.072Z,5.32
2023-02-03T20:50:25.263Z,5.26
2023-02-03T20:52:53.042Z,5.18
2023-02-03T20:55:21.890Z,5.27
2023-02-03T20:57:45.528Z,5.27
2023-02-03T21:00:18.559Z,5.19
2023-02-03T21:03:00.222Z,5.16
2023-02-03T21:05:26.151Z,5.12
2023-02-03T21:07:49.003Z,5.13
2023-02-03T21:10:20.191Z,5.11
2023-02-03T21:12:43.064Z,5.06
2023-02-03T21:15:20.986Z,5.00
2023-02-03T21:17:43.535Z,5.02
2023-02-03T21:20:22.364Z,4.96
2023-02-03T21:22:45.246Z,4.91
2023-02-03T21:25:26.765Z,4.84
2023-02-03T21:27:51.485Z,4.82
2023-02-03T21:30:28.515Z,4.67
2023-02-03T21:32:51.713Z,4.75
2023-02-03T21:35:25.917Z,4.68
2023-02-03T21:37:49.251Z,4.68
2023-02-03T21:40:24.222Z,4.74
2023-02-03T21:42:47.252Z,4.75
2023-02-03T21:45:21.650Z,4.75
2023-02-03T21:47:46.514Z,4.70
2023-02-03T21:50:35.091Z,4.70
2023-02-03T21:53:24.724Z,4.62
2023-02-03T21:55:47.714Z,4.58
2023-02-03T21:58:32.554Z,4.53
2023-02-03T22:01:00.290Z,4.56
2023-02-03T22:03:30.330Z,4.54
2023-02-03T22:06:03.413Z,4.54
2023-02-03T22:08:26.502Z,4.46
2023-02-03T22:10:49.680Z,4.51
2023-02-03T22:13:13.281Z,4.50
2023-02-03T22:15:35.846Z,4.47
2023-02-03T22:17:58.823Z,4.39
2023-02-03T22:20:21.691Z,4.40
2023-02-03T22:22:44.262Z,4.33
2023-02-03T22:25:07.292Z,4.36
2023-02-03T22:27:31.505Z,4.33
2023-02-03T22:29:56.468Z,4.33
2023-02-03T22:32:19.020Z,4.39
2023-02-03T22:34:41.576Z,4.32
2023-02-03T22:37:04.299Z,4.29
2023-02-03T22:39:26.832Z,4.37
2023-02-03T22:41:49.479Z,4.37
2023-02-03T22:44:16.078Z,4.36
2023-02-03T22:46:38.734Z,4.47
2023-02-03T22:49:01.433Z,4.50
2023-02-03T22:51:24.223Z,4.51
2023-02-03T22:53:46.994Z,4.54
2023-02-03T22:56:09.618Z,4.57
2023-02-03T22:58:32.421Z,4.53
2023-02-03T23:00:55.110Z,4.53
2023-02-03T23:03:18.216Z,4.46
2023-02-03T23:05:40.868Z,4.54
2023-02-03T23:08:03.895Z,4.60
2023-02-03T23:10:31.523Z,4.68
2023-02-03T23:12:54.706Z,4.65
2023-02-03T23:15:20.405Z,4.71
2023-02-03T23:17:43.015Z,4.78
2023-02-03T23:20:07.101Z,4.77
2023-02-03T23:22:29.715Z,4.78
2023-02-03T23:24:52.311Z,4.81
2023-02-03T23:27:14.895Z,4.82
2023-02-03T23:30:18.762Z,4.85
2023-02-03T23:32:41.505Z,4.79
2023-02-03T23:35:23.400Z,4.84
2023-02-03T23:37:46.058Z,4.89
2023-02-03T23:40:09.755Z,4.92
2023-02-03T23:42:33.797Z,4.87
2023-02-03T23:44:57.138Z,4.96
2023-02-03T23:47:19.943Z,5.02
2023-02-03T23:49:42.653Z,4.93
2023-02-03T23:52:05.620Z,4.99
2023-02-03T23:54:28.365Z,4.91
2023-02-03T23:56:52.698Z,4.96
2023-02-03T23:59:15.418Z,4.91
